SPWBA EPKK-EPKK
Flight info
| Callsign | SPWBA |
|---|---|
| Flight time | 0h 3m |
| Altitude | 2000 |
| Route | EPKK DTC EPKK |
| Aircraft | P208/L-V/N |
Departure
| Time | 2026-05-06 16:39 |
|---|---|
| Airport | Kraków John Paul II International Airport (EPKK) |
Arrival
| Time | 2026-05-06 16:43 |
|---|---|
| Airport | Kraków John Paul II International Airport (EPKK) |
| Time | Latitude | Longitude | Altitude | Speed | Heading |
|---|---|---|---|---|---|
| 2026-05-06 16:15 | 50.07686 | 19.80078 | 794 ft | 0 kts | 348° |
| 2026-05-06 16:34 | 50.07711 | 19.80065 | 794 ft | 16 kts | 354° |
| 2026-05-06 16:34 | 50.07749 | 19.80131 | 794 ft | 7 kts | 75° |
| 2026-05-06 16:35 | 50.07757 | 19.80191 | 794 ft | 4 kts | 76° |
| 2026-05-06 16:35 | 50.07763 | 19.80233 | 794 ft | 0 kts | 80° |
| 2026-05-06 16:35 | 50.07766 | 19.80253 | 794 ft | 7 kts | 79° |
| 2026-05-06 16:35 | 50.07774 | 19.80312 | 794 ft | 6 kts | 77° |
| 2026-05-06 16:36 | 50.07794 | 19.80345 | 794 ft | 7 kts | 20° |
| 2026-05-06 16:36 | 50.07843 | 19.80337 | 794 ft | 4 kts | 348° |
| 2026-05-06 16:36 | 50.07847 | 19.80335 | 794 ft | 0 kts | 349° |
| 2026-05-06 16:37 | 50.07856 | 19.80332 | 794 ft | 6 kts | 347° |
| 2026-05-06 16:37 | 50.07940 | 19.80304 | 794 ft | 12 kts | 350° |
| 2026-05-06 16:37 | 50.08017 | 19.80271 | 793 ft | 5 kts | 301° |
| 2026-05-06 16:37 | 50.08019 | 19.80249 | 794 ft | 0 kts | 251° |
| 2026-05-06 16:38 | 50.07993 | 19.80064 | 795 ft | 40 kts | 258° |
| 2026-05-06 16:38 | 50.07911 | 19.79465 | 829 ft | 67 kts | 258° |
| 2026-05-06 16:38 | 50.07808 | 19.78709 | 925 ft | 77 kts | 258° |
| 2026-05-06 16:39 | 50.07833 | 19.77882 | 1066 ft | 79 kts | 293° |
| 2026-05-06 16:39 | 50.08226 | 19.77284 | 1227 ft | 82 kts | 336° |
| 2026-05-06 16:39 | 50.08790 | 19.77209 | 1402 ft | 83 kts | 10° |
| 2026-05-06 16:39 | 50.09299 | 19.77636 | 1487 ft | 93 kts | 66° |
| 2026-05-06 16:40 | 50.09361 | 19.78643 | 1589 ft | 98 kts | 90° |
| 2026-05-06 16:40 | 50.09359 | 19.79771 | 1650 ft | 110 kts | 94° |
| 2026-05-06 16:40 | 50.09316 | 19.80982 | 1662 ft | 111 kts | 97° |
| 2026-05-06 16:40 | 50.09238 | 19.82175 | 1677 ft | 111 kts | 97° |
| 2026-05-06 16:41 | 50.09151 | 19.83389 | 1673 ft | 114 kts | 101° |
| 2026-05-06 16:41 | 50.08916 | 19.84463 | 1759 ft | 95 kts | 157° |
| 2026-05-06 16:41 | 50.08536 | 19.84052 | 1772 ft | 91 kts | 265° |
| 2026-05-06 16:41 | 50.08428 | 19.83132 | 1587 ft | 82 kts | 248° |
| 2026-05-06 16:42 | 50.08308 | 19.82320 | 1365 ft | 77 kts | 253° |
| 2026-05-06 16:42 | 50.08190 | 19.81544 | 1226 ft | 70 kts | 253° |
| 2026-05-06 16:42 | 50.08091 | 19.80871 | 1089 ft | 58 kts | 256° |
| 2026-05-06 16:42 | 50.08011 | 19.80272 | 912 ft | 55 kts | 257° |
| 2026-05-06 16:43 | 50.07942 | 19.79695 | 800 ft | 53 kts | 255° |
| 2026-05-06 16:43 | 50.07885 | 19.79267 | 794 ft | 36 kts | 254° |
| 2026-05-06 16:43 | 50.07806 | 19.78708 | 829 ft | 63 kts | 258° |
| 2026-05-06 16:43 | 50.07880 | 19.78035 | 983 ft | 64 kts | 290° |
| 2026-05-06 16:44 | 50.08047 | 19.77378 | 1117 ft | 69 kts | 290° |
| 2026-05-06 16:44 | 50.08295 | 19.76724 | 1245 ft | 73 kts | 326° |
| 2026-05-06 16:44 | 50.08827 | 19.76614 | 1362 ft | 86 kts | 11° |
| 2026-05-06 16:44 | 50.09393 | 19.76970 | 1475 ft | 91 kts | 25° |
| 2026-05-06 16:45 | 50.09979 | 19.77447 | 1596 ft | 97 kts | 26° |
| 2026-05-06 16:45 | 50.10624 | 19.77799 | 1633 ft | 102 kts | 11° |
| 2026-05-06 16:45 | 50.11141 | 19.78468 | 1748 ft | 102 kts | 76° |
| 2026-05-06 16:45 | 50.11061 | 19.79557 | 1796 ft | 103 kts | 118° |
| 2026-05-06 16:46 | 50.10751 | 19.80577 | 1857 ft | 106 kts | 123° |
| 2026-05-06 16:46 | 50.10391 | 19.81595 | 1900 ft | 109 kts | 128° |
| 2026-05-06 16:46 | 50.09991 | 19.82582 | 1876 ft | 105 kts | 134° |
| 2026-05-06 16:46 | 50.09443 | 19.83136 | 1918 ft | 91 kts | 175° |
| 2026-05-06 16:47 | 50.08875 | 19.83108 | 1748 ft | 77 kts | 205° |
| 2026-05-06 16:47 | 50.08434 | 19.82638 | 1462 ft | 80 kts | 235° |
| 2026-05-06 16:47 | 50.08248 | 19.81841 | 1236 ft | 76 kts | 256° |
| 2026-05-06 16:47 | 50.08138 | 19.81132 | 1068 ft | 62 kts | 259° |
| 2026-05-06 16:48 | 50.08050 | 19.80492 | 918 ft | 60 kts | 258° |
| 2026-05-06 16:48 | 50.07965 | 19.79865 | 800 ft | 57 kts | 257° |
| 2026-05-06 16:48 | 50.07893 | 19.79341 | 794 ft | 56 kts | 258° |
| 2026-05-06 16:48 | 50.07801 | 19.78628 | 844 ft | 74 kts | 260° |
| 2026-05-06 16:49 | 50.07871 | 19.77841 | 1004 ft | 75 kts | 300° |
| 2026-05-06 16:49 | 50.08228 | 19.77212 | 1153 ft | 78 kts | 327° |
| 2026-05-06 16:49 | 50.08742 | 19.77151 | 1319 ft | 80 kts | 22° |
| 2026-05-06 16:49 | 50.09080 | 19.77863 | 1456 ft | 86 kts | 78° |
| 2026-05-06 16:50 | 50.09127 | 19.78818 | 1542 ft | 91 kts | 90° |
| 2026-05-06 16:50 | 50.09135 | 19.79816 | 1715 ft | 93 kts | 91° |
| 2026-05-06 16:50 | 50.09156 | 19.80821 | 1809 ft | 94 kts | 92° |
| 2026-05-06 16:50 | 50.09153 | 19.81510 | 1856 ft | 99 kts | 95° |
| 2026-05-06 16:51 | 50.09146 | 19.83038 | 1949 ft | 110 kts | 96° |
| 2026-05-06 16:51 | 50.09130 | 19.84231 | 1968 ft | 109 kts | 98° |
| 2026-05-06 16:51 | 50.09163 | 19.85409 | 1994 ft | 108 kts | 92° |
| 2026-05-06 16:51 | 50.09281 | 19.86494 | 2064 ft | 103 kts | 67° |
| 2026-05-06 16:52 | 50.09816 | 19.87286 | 1988 ft | 107 kts | 24° |
| 2026-05-06 16:52 | 50.10492 | 19.87611 | 1949 ft | 103 kts | 7° |
| 2026-05-06 16:52 | 50.11223 | 19.87814 | 1892 ft | 108 kts | 3° |
| 2026-05-06 16:52 | 50.11970 | 19.87949 | 1901 ft | 108 kts | 360° |
| 2026-05-06 16:53 | 50.12661 | 19.87908 | 1992 ft | 89 kts | 321° |
| 2026-05-06 16:53 | 50.12803 | 19.87124 | 1926 ft | 85 kts | 246° |
| 2026-05-06 16:53 | 50.12399 | 19.86446 | 1932 ft | 90 kts | 202° |
| 2026-05-06 16:53 | 50.11766 | 19.86515 | 1865 ft | 96 kts | 171° |
| 2026-05-06 16:54 | 50.11152 | 19.86918 | 1777 ft | 101 kts | 136° |
| 2026-05-06 16:54 | 50.11012 | 19.88000 | 1684 ft | 111 kts | 73° |
| 2026-05-06 16:54 | 50.11566 | 19.88668 | 1703 ft | 106 kts | 359° |
| 2026-05-06 16:54 | 50.12248 | 19.88381 | 1725 ft | 103 kts | 336° |
| 2026-05-06 16:55 | 50.12867 | 19.87917 | 1772 ft | 95 kts | 308° |
| 2026-05-06 16:55 | 50.12894 | 19.86979 | 1761 ft | 94 kts | 229° |
| 2026-05-06 16:55 | 50.12267 | 19.86789 | 1796 ft | 101 kts | 173° |
| 2026-05-06 16:55 | 50.11576 | 19.87088 | 1750 ft | 103 kts | 167° |
| 2026-05-06 16:56 | 50.11031 | 19.87780 | 1785 ft | 108 kts | 119° |
| 2026-05-06 16:56 | 50.11212 | 19.88876 | 1830 ft | 114 kts | 45° |
| 2026-05-06 16:56 | 50.11888 | 19.89354 | 1866 ft | 108 kts | 350° |
| 2026-05-06 16:56 | 50.12602 | 19.89039 | 1939 ft | 107 kts | 329° |
| 2026-05-06 16:57 | 50.13095 | 19.88282 | 2026 ft | 96 kts | 278° |
| 2026-05-06 16:57 | 50.12744 | 19.87482 | 1883 ft | 105 kts | 199° |
| 2026-05-06 16:57 | 50.11992 | 19.87690 | 1707 ft | 116 kts | 165° |
| 2026-05-06 16:57 | 50.11251 | 19.88029 | 1665 ft | 107 kts | 173° |
| 2026-05-06 16:58 | 50.10530 | 19.88243 | 1564 ft | 104 kts | 171° |
| 2026-05-06 16:58 | 50.09842 | 19.88311 | 1602 ft | 96 kts | 194° |
| 2026-05-06 16:58 | 50.09256 | 19.87888 | 1619 ft | 94 kts | 228° |
| 2026-05-06 16:58 | 50.08958 | 19.86964 | 1586 ft | 99 kts | 252° |
| 2026-05-06 16:59 | 50.08826 | 19.85912 | 1529 ft | 98 kts | 259° |
| 2026-05-06 16:59 | 50.08689 | 19.84875 | 1519 ft | 98 kts | 257° |
| 2026-05-06 16:59 | 50.08527 | 19.83813 | 1407 ft | 104 kts | 255° |
| 2026-05-06 16:59 | 50.08376 | 19.82767 | 1303 ft | 92 kts | 256° |
| 2026-05-06 17:00 | 50.08249 | 19.81879 | 1189 ft | 76 kts | 258° |
| 2026-05-06 17:00 | 50.08149 | 19.81174 | 1098 ft | 61 kts | 257° |
| 2026-05-06 17:00 | 50.08057 | 19.80530 | 993 ft | 57 kts | 259° |
| 2026-05-06 17:00 | 50.07978 | 19.79963 | 867 ft | 53 kts | 258° |
| 2026-05-06 17:01 | 50.07905 | 19.79431 | 794 ft | 41 kts | 257° |
| 2026-05-06 17:01 | 50.07866 | 19.79160 | 794 ft | 20 kts | 257° |
| 2026-05-06 17:01 | 50.07815 | 19.79068 | 794 ft | 8 kts | 179° |
| 2026-05-06 17:01 | 50.07767 | 19.79082 | 794 ft | 5 kts | 167° |
| 2026-05-06 17:02 | 50.07733 | 19.79093 | 794 ft | 6 kts | 167° |
| 2026-05-06 17:02 | 50.07669 | 19.79114 | 794 ft | 11 kts | 166° |
| 2026-05-06 17:02 | 50.07630 | 19.79132 | 794 ft | 5 kts | 144° |
| 2026-05-06 17:02 | 50.07619 | 19.79202 | 794 ft | 11 kts | 73° |
| 2026-05-06 17:03 | 50.07636 | 19.79320 | 794 ft | 24 kts | 79° |
| 2026-05-06 17:03 | 50.07689 | 19.79704 | 794 ft | 19 kts | 80° |
| 2026-05-06 17:03 | 50.07697 | 19.79855 | 794 ft | 5 kts | 140° |
| 2026-05-06 17:03 | 50.07633 | 19.79892 | 794 ft | 14 kts | 163° |
| 2026-05-06 17:04 | 50.07614 | 19.79995 | 794 ft | 6 kts | 78° |
| 2026-05-06 17:04 | 50.07620 | 19.80034 | 794 ft | 4 kts | 51° |
| 2026-05-06 17:04 | 50.07655 | 19.80019 | 794 ft | 2 kts | 355° |
| 2026-05-06 17:04 | 50.07664 | 19.80016 | 794 ft | 3 kts | 344° |
| 2026-05-06 17:05 | 50.07671 | 19.80014 | 794 ft | 0 kts | 349° |